Time;durP1;ratioP1;P1;durP2;ratioP2;P2;SDS_P1;SDS_P2;PMS_P1;PMS_P2;Temp;Humidity;BMP_temperature;BMP_pressure;BME280_temperature;BME280_humidity;BME280_pressure;Samples;Min_cycle;Max_cycle;Signal;HPM_P1;HPM_P2
2022/08/12 00:46:43;;;;;;;5.70;3.45;;;11.70;99.90;;;;;;8333337;28;20478;-81
2022/08/12 00:50:46;;;;;;;7.80;4.00;;;11.70;99.90;;;;;;8315949;28;20021;-80
2022/08/12 00:54:59;;;;;;;8.10;4.30;;;11.80;99.90;;;;;;8324291;28;20030;-80
2022/08/12 00:59:02;;;;;;;6.75;3.95;;;11.80;99.90;;;;;;8314608;28;20022;-81
2022/08/12 01:03:07;;;;;;;5.95;4.30;;;11.80;99.90;;;;;;8336786;28;20022;-80
2022/08/12 01:11:31;;;;;;;4.70;3.90;;;11.80;99.90;;;;;;8340814;28;20044;-81
2022/08/12 01:15:33;;;;;;;6.63;3.72;;;11.40;99.90;;;;;;8315090;28;20121;-81
2022/08/12 01:19:33;;;;;;;9.80;4.55;;;11.00;99.90;;;;;;8313105;28;20041;-81
2022/08/12 01:24:00;;;;;;;5.15;4.32;;;10.90;99.90;;;;;;8340945;28;20025;-80
2022/08/12 01:28:02;;;;;;;4.90;4.28;;;10.90;99.90;;;;;;8313290;28;20021;-81
2022/08/12 01:32:07;;;;;;;6.22;4.18;;;11.00;99.90;;;;;;8315898;28;20465;-81
2022/08/12 01:36:10;;;;;;;4.78;3.72;;;11.00;99.90;;;;;;8312370;28;20049;-81
2022/08/12 01:40:12;;;;;;;3.80;3.30;;;11.20;99.90;;;;;;8329730;28;20451;-81
2022/08/12 01:44:15;;;;;;;4.50;3.78;;;11.30;99.90;;;;;;8319228;28;20029;-80
2022/08/12 01:48:33;;;;;;;6.03;4.15;;;11.20;99.90;;;;;;8330185;28;20517;-80
2022/08/12 01:52:52;;;;;;;4.38;3.58;;;11.10;99.90;;;;;;8323439;28;20384;-81
2022/08/12 01:57:09;;;;;;;5.85;4.18;;;11.20;99.90;;;;;;8335514;28;20033;-81
2022/08/12 02:01:11;;;;;;;11.10;4.15;;;11.10;99.90;;;;;;8314249;28;20022;-81
2022/08/12 02:14:56;;;;;;;6.68;3.90;;;11.60;99.90;;;;;;8329895;28;20104;-80
2022/08/12 02:19:20;;;;;;;11.00;3.85;;;11.70;99.90;;;;;;8336353;28;20390;-81
2022/08/12 02:23:25;;;;;;;6.35;3.92;;;11.80;99.90;;;;;;8345808;28;20052;-80
2022/08/12 02:27:33;;;;;;;5.47;3.75;;;11.80;99.90;;;;;;8321471;28;20072;-81
2022/08/12 02:31:35;;;;;;;8.20;3.90;;;11.80;99.90;;;;;;8311909;28;20029;-81
2022/08/12 02:35:38;;;;;;;7.20;3.92;;;11.70;99.90;;;;;;8328716;28;20033;-80
2022/08/12 02:39:43;;;;;;;4.93;3.38;;;11.80;99.90;;;;;;8313725;28;20045;-81
2022/08/12 02:43:49;;;;;;;6.97;4.28;;;12.00;99.90;;;;;;8331117;28;20033;-80
2022/08/12 02:47:53;;;;;;;5.80;3.67;;;11.80;99.90;;;;;;8330265;28;20101;-80
2022/08/12 02:51:54;;;;;;;7.43;4.00;;;11.80;99.90;;;;;;8318337;28;20021;-81
2022/08/12 02:55:58;;;;;;;7.38;4.20;;;11.70;99.90;;;;;;8388999;23;20040;-79
2022/08/12 03:00:04;;;;;;;6.25;4.10;;;11.60;99.90;;;;;;8413547;28;20023;-79
2022/08/12 03:04:06;;;;;;;4.28;3.88;;;11.50;99.90;;;;;;8438387;28;20055;-79
2022/08/12 03:08:12;;;;;;;5.65;3.88;;;11.40;99.90;;;;;;8439552;28;20075;-79
2022/08/12 03:12:13;;;;;;;8.32;4.22;;;11.40;99.90;;;;;;8439514;28;20031;-79
2022/08/12 03:16:13;;;;;;;6.53;4.20;;;11.40;99.90;;;;;;8430609;28;20110;-80
2022/08/12 03:20:16;;;;;;;14.38;4.35;;;11.40;99.90;;;;;;8414865;28;20028;-78
2022/08/12 03:24:20;;;;;;;5.82;4.22;;;11.30;99.90;;;;;;8416739;28;20509;-79
2022/08/12 03:29:05;;;;;;;12.07;4.25;;;11.10;99.90;;;;;;8434480;28;20058;-79
2022/08/12 03:32:48;;;;;;;7.40;4.20;;;10.80;99.90;;;;;;8430355;28;20403;-79
2022/08/12 03:36:53;;;;;;;6.22;4.38;;;10.70;99.90;;;;;;8427258;28;20047;-79
2022/08/12 04:02:54;;;;;;;9.93;5.30;;;9.90;99.90;;;;;;8433968;28;20074;-79
2022/08/12 04:06:56;;;;;;;12.25;5.43;;;9.80;99.90;;;;;;8432944;28;20012;-79
2022/08/12 04:15:18;;;;;;;9.43;5.50;;;9.70;99.90;;;;;;8436444;28;20093;-79
2022/08/12 04:19:20;;;;;;;5.68;5.00;;;9.70;99.90;;;;;;8432791;28;20020;-81
2022/08/12 04:23:22;;;;;;;7.88;5.35;;;9.70;99.90;;;;;;8416386;28;20035;-79
2022/08/12 04:27:23;;;;;;;12.38;5.28;;;9.60;99.90;;;;;;8429049;28;20028;-79
2022/08/12 04:31:34;;;;;;;8.80;5.95;;;9.50;99.90;;;;;;8432303;28;20042;-78
2022/08/12 04:35:36;;;;;;;9.18;6.10;;;9.50;99.90;;;;;;8414837;28;20613;-79
2022/08/12 04:39:38;;;;;;;6.75;4.80;;;9.70;99.90;;;;;;8418818;28;20016;-79
2022/08/12 04:43:38;;;;;;;10.13;5.32;;;9.80;99.90;;;;;;8411861;28;20062;-78
2022/08/12 04:47:39;;;;;;;7.55;5.70;;;9.80;99.90;;;;;;8429624;28;20020;-78
2022/08/12 04:51:39;;;;;;;9.50;5.93;;;9.80;99.90;;;;;;8415211;28;20024;-79
2022/08/12 04:55:41;;;;;;;6.95;5.43;;;9.90;99.90;;;;;;8427539;28;20024;-79
2022/08/12 04:59:42;;;;;;;6.45;5.68;;;10.10;99.90;;;;;;8434874;28;20048;-79
2022/08/12 05:03:42;;;;;;;7.10;5.60;;;10.20;99.90;;;;;;8411550;28;20016;-78
2022/08/12 05:07:43;;;;;;;8.98;5.65;;;10.40;99.90;;;;;;8410939;28;20045;-79
2022/08/12 05:11:48;;;;;;;7.30;5.72;;;10.60;99.90;;;;;;8430880;28;20391;-79
2022/08/12 05:15:49;;;;;;;7.28;5.70;;;10.90;99.90;;;;;;8415421;28;20118;-79
2022/08/12 05:19:50;;;;;;;8.95;5.70;;;11.20;99.90;;;;;;8432328;28;20012;-79
2022/08/12 05:23:50;;;;;;;8.88;5.50;;;11.60;99.90;;;;;;8414356;28;20023;-78
2022/08/12 05:27:52;;;;;;;7.32;5.45;;;11.70;99.90;;;;;;8412904;28;20081;-79
2022/08/12 05:31:55;;;;;;;5.68;5.15;;;11.80;99.90;;;;;;8410699;28;20020;-79
2022/08/12 05:35:55;;;;;;;9.30;5.32;;;12.00;99.90;;;;;;8411249;28;20013;-79
2022/08/12 05:39:57;;;;;;;6.10;5.32;;;12.30;99.90;;;;;;8410469;28;20034;-79
2022/08/12 05:44:00;;;;;;;6.85;4.80;;;12.50;99.90;;;;;;8432010;28;20027;-79
2022/08/12 05:48:01;;;;;;;6.03;4.80;;;13.00;99.90;;;;;;8411660;28;20044;-79
2022/08/12 05:52:02;;;;;;;10.52;5.60;;;13.00;99.90;;;;;;8430255;28;20019;-79
2022/08/12 05:56:03;;;;;;;8.77;5.53;;;13.30;99.90;;;;;;8418505;28;20052;-79
2022/08/12 06:00:04;;;;;;;5.95;4.63;;;14.00;99.90;;;;;;8412477;28;20487;-79
2022/08/12 06:04:05;;;;;;;6.88;3.92;;;15.60;99.90;;;;;;8411471;28;20019;-80
2022/08/12 06:08:07;;;;;;;6.03;3.60;;;16.30;99.90;;;;;;8431001;28;20023;-79
2022/08/12 06:12:08;;;;;;;4.18;3.78;;;17.00;99.90;;;;;;8415687;28;20020;-80
2022/08/12 06:16:11;;;;;;;4.55;3.90;;;18.00;99.90;;;;;;8416560;28;20027;-80
2022/08/12 06:20:13;;;;;;;5.43;3.28;;;18.90;99.90;;;;;;8427433;28;20446;-80
2022/08/12 06:24:17;;;;;;;4.90;3.20;;;19.60;99.90;;;;;;8413975;28;20384;-80
2022/08/12 06:28:18;;;;;;;3.42;2.47;;;20.80;99.90;;;;;;8430849;28;20074;-80
2022/08/12 06:32:18;;;;;;;3.20;2.90;;;21.50;99.90;;;;;;8435847;28;20471;-80
2022/08/12 06:36:22;;;;;;;4.45;2.50;;;21.30;99.90;;;;;;8430177;28;20398;-79
2022/08/12 06:44:42;;;;;;;3.45;2.28;;;21.40;99.90;;;;;;8431700;28;20027;-79
2022/08/12 06:48:42;;;;;;;7.10;2.70;;;21.50;99.90;;;;;;8446202;28;20206;-80
2022/08/12 06:52:46;;;;;;;3.28;2.47;;;21.50;99.90;;;;;;8424525;28;20016;-80
2022/08/12 06:56:47;;;;;;;2.40;2.20;;;21.30;99.90;;;;;;8450276;28;20388;-80
2022/08/12 07:00:49;;;;;;;4.68;2.38;;;21.30;99.90;;;;;;8420755;28;20044;-80
2022/08/12 07:04:51;;;;;;;4.47;2.35;;;21.90;99.90;;;;;;8444959;28;20077;-80
2022/08/12 07:08:52;;;;;;;4.90;2.60;;;22.30;99.90;;;;;;8422452;28;20026;-80
2022/08/12 07:12:56;;;;;;;3.15;2.10;;;22.20;99.90;;;;;;8436111;28;20402;-80
2022/08/12 07:17:00;;;;;;;3.03;2.22;;;22.20;99.90;;;;;;8416070;28;20437;-79
2022/08/12 07:21:03;;;;;;;3.67;2.30;;;22.40;99.90;;;;;;8427832;28;20031;-79
2022/08/12 07:29:37;;;;;;;2.50;2.28;;;22.30;99.90;;;;;;8384307;28;20070;-80
2022/08/12 07:33:40;;;;;;;3.95;2.33;;;22.90;99.90;;;;;;8413752;28;20456;-80
2022/08/12 07:37:41;;;;;;;3.40;2.40;;;22.80;99.90;;;;;;8434484;28;20367;-80
2022/08/12 07:41:42;;;;;;;2.72;2.20;;;23.10;98.60;;;;;;8440850;28;20024;-79
2022/08/12 07:45:44;;;;;;;3.60;2.60;;;23.20;97.80;;;;;;8415673;28;20483;-79
2022/08/12 07:49:44;;;;;;;6.55;2.20;;;23.20;99.40;;;;;;8447760;28;20028;-79
2022/08/12 07:53:45;;;;;;;4.80;2.42;;;22.90;97.60;;;;;;8415982;28;20417;-80
2022/08/12 07:57:56;;;;;;;4.15;2.20;;;23.10;96.80;;;;;;8425815;28;20026;-80
2022/08/12 08:02:00;;;;;;;3.42;2.05;;;23.20;96.40;;;;;;8432297;28;20012;-80
2022/08/12 08:06:01;;;;;;;2.53;1.83;;;23.40;96.80;;;;;;8414662;28;20016;-80
2022/08/12 08:10:07;;;;;;;3.03;1.88;;;23.70;93.70;;;;;;8430583;28;20088;-80
2022/08/12 08:14:09;;;;;;;6.10;2.20;;;24.00;95.00;;;;;;8440864;28;20012;-80
2022/08/12 08:18:12;;;;;;;3.40;2.20;;;24.50;93.20;;;;;;8417132;28;20097;-80
2022/08/12 08:22:12;;;;;;;1.65;1.55;;;24.80;95.30;;;;;;8416433;28;20035;-80
2022/08/12 08:26:14;;;;;;;4.30;1.92;;;24.60;92.90;;;;;;8413339;28;20044;-80
2022/08/12 08:30:16;;;;;;;2.45;1.77;;;24.90;91.80;;;;;;8422486;28;20019;-79
2022/08/12 08:34:18;;;;;;;4.30;2.00;;;24.50;92.00;;;;;;8421382;28;20027;-80
2022/08/12 08:38:18;;;;;;;5.38;1.90;;;24.40;92.90;;;;;;8415357;28;20164;-79
2022/08/12 08:42:39;;;;;;;5.30;1.80;;;24.20;90.60;;;;;;8413685;28;20024;-79
2022/08/12 08:46:42;;;;;;;2.23;2.03;;;24.60;91.10;;;;;;8417834;28;20475;-80
2022/08/12 08:50:43;;;;;;;7.50;2.00;;;24.90;88.60;;;;;;8445309;28;20019;-80
2022/08/12 08:54:43;;;;;;;4.25;1.95;;;25.20;87.10;;;;;;8426661;22;20568;-86
2022/08/12 08:58:44;;;;;;;2.72;1.80;;;25.10;88.00;;;;;;8394285;28;20027;-84
2022/08/12 09:02:47;;;;;;;4.28;1.92;;;25.30;84.90;;;;;;8399713;28;20017;-85
2022/08/12 09:06:47;;;;;;;4.30;2.08;;;25.50;84.80;;;;;;8406668;28;20043;-85
2022/08/12 09:10:48;;;;;;;1.60;1.50;;;25.80;85.50;;;;;;8399811;28;20453;-84
2022/08/12 09:14:48;;;;;;;4.45;1.90;;;26.00;78.30;;;;;;8399536;28;20020;-85
2022/08/12 09:18:49;;;;;;;3.80;1.92;;;25.80;78.80;;;;;;8393869;28;20020;-85
2022/08/12 09:22:50;;;;;;;5.28;2.05;;;25.70;81.50;;;;;;8430853;28;20015;-87
2022/08/12 09:26:50;;;;;;;3.38;1.85;;;25.60;82.00;;;;;;8407956;28;20035;-84
2022/08/12 09:30:53;;;;;;;1.90;1.48;;;25.30;78.60;;;;;;8388837;28;20075;-84
2022/08/12 09:34:54;;;;;;;3.85;1.60;;;25.50;77.30;;;;;;8386959;28;20234;-84
2022/08/12 09:38:56;;;;;;;2.30;1.98;;;25.60;79.80;;;;;;8403731;28;20020;-84
2022/08/12 09:47:19;;;;;;;2.80;1.83;;;26.20;74.70;;;;;;8413760;28;20061;-84
2022/08/12 09:51:19;;;;;;;3.50;1.83;;;26.00;77.10;;;;;;8409559;28;20031;-84
2022/08/12 09:55:20;;;;;;;1.75;1.65;;;25.60;78.60;;;;;;8380007;28;20495;-83
2022/08/12 09:59:22;;;;;;;2.83;2.00;;;25.70;74.60;;;;;;8417216;28;20024;-84
2022/08/12 10:03:26;;;;;;;2.50;1.70;;;25.90;71.70;;;;;;8388823;28;20028;-85
2022/08/12 10:07:29;;;;;;;5.75;1.80;;;26.20;75.10;;;;;;8403694;28;20092;-86
2022/08/12 10:15:49;;;;;;;2.17;1.60;;;26.10;77.50;;;;;;8414185;28;20030;-84
2022/08/12 10:19:51;;;;;;;2.53;1.90;;;26.20;80.00;;;;;;8409579;28;20020;-84
2022/08/12 10:23:53;;;;;;;2.67;1.73;;;26.30;70.40;;;;;;8391414;28;20114;-84
2022/08/12 10:32:18;;;;;;;3.20;1.80;;;26.40;77.90;;;;;;8416801;28;20070;-84
2022/08/12 10:36:18;;;;;;;3.20;1.73;;;26.60;70.20;;;;;;8403044;28;20024;-84
2022/08/12 10:40:19;;;;;;;4.43;1.80;;;27.20;70.90;;;;;;8397229;28;20020;-84
2022/08/12 10:44:21;;;;;;;2.60;1.50;;;27.30;71.50;;;;;;8402098;28;20050;-84
2022/08/12 10:48:22;;;;;;;3.20;2.00;;;28.20;70.40;;;;;;8399852;28;20075;-85
2022/08/12 10:52:23;;;;;;;2.50;1.70;;;26.80;68.60;;;;;;8396148;28;20021;-84
2022/08/12 10:56:23;;;;;;;6.45;1.10;;;26.90;72.00;;;;;;8393176;28;20037;-84
2022/08/12 11:00:24;;;;;;;2.90;1.50;;;26.40;69.60;;;;;;8391721;28;20054;-85
2022/08/12 11:04:28;;;;;;;2.85;1.48;;;26.70;69.70;;;;;;8393903;28;20024;-85
2022/08/12 11:08:28;;;;;;;2.40;1.50;;;27.80;66.50;;;;;;8391016;28;20021;-84
2022/08/12 11:12:30;;;;;;;1.85;1.33;;;28.00;68.40;;;;;;8427719;28;20070;-84
2022/08/12 11:16:31;;;;;;;2.10;1.38;;;26.30;67.30;;;;;;8400553;28;20025;-85
2022/08/12 11:20:32;;;;;;;3.78;1.48;;;26.60;73.60;;;;;;8401508;28;20031;-85
2022/08/12 11:24:32;;;;;;;4.57;1.80;;;26.80;70.50;;;;;;8411955;28;20504;-85
2022/08/12 11:28:34;;;;;;;2.28;1.70;;;27.40;69.20;;;;;;8394217;28;20028;-85
2022/08/12 11:32:35;;;;;;;4.97;1.52;;;29.40;63.10;;;;;;8393854;28;20514;-86
2022/08/12 11:36:35;;;;;;;3.42;1.40;;;29.50;63.20;;;;;;8421664;28;20016;-84
2022/08/12 11:40:36;;;;;;;3.30;1.50;;;30.10;58.50;;;;;;8395564;28;20024;-84
2022/08/12 11:44:37;;;;;;;4.47;1.42;;;30.10;58.80;;;;;;8405666;28;20051;-85
2022/08/12 11:48:38;;;;;;;2.63;1.50;;;30.20;58.80;;;;;;8396403;28;20472;-84
2022/08/12 11:52:39;;;;;;;3.17;1.55;;;30.10;53.60;;;;;;8414762;28;20024;-86
2022/08/12 11:56:39;;;;;;;3.70;1.42;;;30.30;53.90;;;;;;8417092;28;20055;-85
2022/08/12 12:00:40;;;;;;;4.57;1.67;;;29.70;58.00;;;;;;8419310;28;20024;-84
2022/08/12 12:04:40;;;;;;;3.78;1.48;;;29.60;57.30;;;;;;8411865;28;20496;-84
2022/08/12 12:08:41;;;;;;;2.67;1.40;;;29.70;55.70;;;;;;8401661;28;20116;-84
2022/08/12 12:12:42;;;;;;;1.20;1.10;;;31.00;52.90;;;;;;8409996;28;20039;-85
2022/08/12 12:16:42;;;;;;;4.55;1.50;;;30.20;52.10;;;;;;8400755;28;20021;-85
2022/08/12 12:20:43;;;;;;;4.00;1.38;;;30.10;54.80;;;;;;8409508;28;20020;-84
2022/08/12 12:24:46;;;;;;;2.72;1.40;;;30.30;56.90;;;;;;8427197;28;20492;-85
2022/08/12 12:28:46;;;;;;;5.35;1.60;;;31.80;53.80;;;;;;8407091;28;20123;-85
2022/08/12 12:32:47;;;;;;;3.85;1.50;;;32.30;50.70;;;;;;8389477;28;20074;-84
2022/08/12 12:36:48;;;;;;;2.83;1.55;;;31.40;53.00;;;;;;8377235;28;20019;-84
2022/08/12 12:40:49;;;;;;;4.20;1.50;;;31.20;52.10;;;;;;8391589;28;20059;-85
2022/08/12 12:44:50;;;;;;;2.00;1.50;;;31.20;51.90;;;;;;8379548;28;20052;-85
2022/08/12 12:48:50;;;;;;;4.78;1.40;;;32.30;54.30;;;;;;8388387;28;20025;-85
2022/08/12 12:52:52;;;;;;;4.25;1.38;;;33.30;50.80;;;;;;8627173;22;20036;-85
2022/08/12 12:56:53;;;;;;;2.95;1.75;;;33.20;50.20;;;;;;8438697;28;20020;-85
2022/08/12 13:00:57;;;;;;;4.20;1.40;;;32.90;49.70;;;;;;8431113;28;20498;-83
2022/08/12 13:05:00;;;;;;;4.03;1.55;;;32.20;50.80;;;;;;8436924;28;20130;-84
2022/08/12 13:09:01;;;;;;;4.07;1.40;;;28.20;57.40;;;;;;8437581;22;20189;-83
2022/08/12 13:13:02;;;;;;;2.35;1.40;;;30.20;56.00;;;;;;8388270;28;20027;-83
2022/08/12 13:17:02;;;;;;;3.65;1.33;;;30.90;52.70;;;;;;8398318;28;20011;-83
2022/08/12 13:21:05;;;;;;;1.98;1.45;;;30.90;51.80;;;;;;8422030;28;20042;-83
2022/08/12 13:25:06;;;;;;;4.55;1.85;;;32.10;50.80;;;;;;8438439;28;20314;-82
2022/08/12 13:29:07;;;;;;;1.63;1.30;;;31.30;49.40;;;;;;8416325;28;20082;-83
2022/08/12 13:33:09;;;;;;;2.63;1.50;;;30.90;51.30;;;;;;8424802;28;20442;-83
2022/08/12 13:37:10;;;;;;;4.88;1.77;;;32.20;50.20;;;;;;8417038;28;20023;-82
2022/08/12 13:41:31;;;;;;;2.08;1.52;;;32.80;47.60;;;;;;8417258;28;20055;-80
2022/08/12 13:45:33;;;;;;;6.35;1.52;;;33.70;46.20;;;;;;8426297;28;20047;-80
2022/08/12 13:49:34;;;;;;;3.72;1.63;;;34.40;45.60;;;;;;8409642;28;20036;-80
2022/08/12 13:53:34;;;;;;;3.92;1.65;;;32.60;46.20;;;;;;8411110;28;20020;-80
2022/08/12 13:57:42;;;;;;;1.75;1.40;;;33.90;48.50;;;;;;8408231;28;20031;-80
2022/08/12 14:01:43;;;;;;;3.38;1.50;;;34.00;45.60;;;;;;8411655;28;20070;-80
2022/08/12 14:05:44;;;;;;;1.90;1.40;;;34.10;45.20;;;;;;8436815;28;20023;-80
2022/08/12 14:14:03;;;;;;;1.52;1.33;;;29.30;54.70;;;;;;8436795;28;20090;-80
2022/08/12 14:18:08;;;;;;;2.85;1.50;;;30.40;53.10;;;;;;8418855;28;20013;-83
2022/08/12 14:22:09;;;;;;;2.63;1.45;;;29.80;54.70;;;;;;8440923;28;20106;-81
2022/08/12 14:26:12;;;;;;;2.03;1.50;;;28.00;55.70;;;;;;8412508;28;20203;-81
2022/08/12 14:30:12;;;;;;;5.72;1.50;;;26.00;58.10;;;;;;8440107;28;20029;-81
2022/08/12 14:34:13;;;;;;;7.95;1.67;;;25.90;58.20;;;;;;8422285;28;20178;-79
2022/08/12 14:38:20;;;;;;;2.88;1.55;;;26.70;62.00;;;;;;8419880;28;20111;-81
2022/08/12 14:42:21;;;;;;;1.80;1.60;;;29.80;58.30;;;;;;8420006;28;20024;-80
2022/08/12 14:46:23;;;;;;;3.40;1.60;;;31.00;52.90;;;;;;8443238;28;20488;-80
2022/08/12 14:50:23;;;;;;;1.92;1.50;;;32.30;47.30;;;;;;8416436;28;20077;-79
2022/08/12 14:54:24;;;;;;;1.95;1.40;;;29.00;52.00;;;;;;8413463;28;21350;-81
2022/08/12 14:58:25;;;;;;;2.38;1.38;;;28.60;52.50;;;;;;8427912;28;20089;-81
2022/08/12 15:02:27;;;;;;;5.35;1.90;;;31.10;49.50;;;;;;8420478;28;20031;-80
2022/08/12 15:06:27;;;;;;;2.28;1.25;;;32.20;48.90;;;;;;8418977;28;20035;-81
2022/08/12 15:10:28;;;;;;;2.65;1.42;;;33.10;45.10;;;;;;8428011;28;20299;-80
2022/08/12 15:14:28;;;;;;;1.95;1.20;;;34.10;42.90;;;;;;8427331;28;20039;-80
2022/08/12 15:18:31;;;;;;;1.42;1.20;;;33.00;45.10;;;;;;8443391;28;20024;-80
2022/08/12 15:22:31;;;;;;;2.08;1.10;;;32.50;47.40;;;;;;8441279;28;20043;-80
2022/08/12 15:26:35;;;;;;;5.45;1.30;;;30.20;49.80;;;;;;8440369;28;20046;-80
2022/08/12 15:30:38;;;;;;;3.42;1.17;;;29.90;50.70;;;;;;8422397;28;20387;-80
2022/08/12 15:34:38;;;;;;;4.32;1.27;;;32.60;44.40;;;;;;8423658;28;20012;-80
2022/08/12 15:38:40;;;;;;;1.30;1.05;;;33.80;42.90;;;;;;8432060;28;20392;-80
2022/08/12 15:42:42;;;;;;;1.25;1.15;;;33.70;41.80;;;;;;8412561;28;20034;-80
2022/08/12 15:46:42;;;;;;;4.32;1.17;;;32.90;43.70;;;;;;8448378;28;20078;-80
2022/08/12 15:50:43;;;;;;;2.17;1.00;;;32.10;43.90;;;;;;8440444;28;20118;-79
2022/08/12 15:54:44;;;;;;;1.65;1.10;;;28.20;48.90;;;;;;8432511;28;20019;-79
2022/08/12 15:58:46;;;;;;;1.40;1.02;;;25.60;53.30;;;;;;8424624;28;20278;-79
2022/08/12 16:02:48;;;;;;;2.45;1.27;;;24.70;55.40;;;;;;8414048;28;20034;-79
2022/08/12 16:06:51;;;;;;;1.23;0.82;;;24.40;60.20;;;;;;8445882;28;20106;-80
2022/08/12 16:10:52;;;;;;;2.47;1.00;;;24.50;57.90;;;;;;8423862;28;20492;-79
2022/08/12 16:14:55;;;;;;;1.02;0.93;;;24.50;54.80;;;;;;8439219;28;20020;-80
2022/08/12 16:18:56;;;;;;;1.88;0.93;;;24.60;57.90;;;;;;8423916;28;20093;-81
2022/08/12 16:23:00;;;;;;;3.92;1.13;;;24.50;60.30;;;;;;8427296;28;20012;-79
2022/08/12 16:27:00;;;;;;;2.15;1.00;;;24.50;56.40;;;;;;8418817;28;20020;-80
2022/08/12 16:31:01;;;;;;;0.90;0.80;;;24.60;59.90;;;;;;8437528;28;20031;-80
2022/08/12 16:35:06;;;;;;;2.08;0.95;;;24.20;58.90;;;;;;8414484;28;20027;-79
2022/08/12 16:39:07;;;;;;;1.98;1.00;;;24.00;58.00;;;;;;8448559;28;20023;-80
2022/08/12 16:43:28;;;;;;;3.20;1.25;;;24.10;57.80;;;;;;8415071;28;20400;-80
2022/08/12 16:47:30;;;;;;;1.85;1.23;;;24.10;57.90;;;;;;8420041;28;20225;-81
2022/08/12 16:51:30;;;;;;;2.85;1.25;;;24.30;57.50;;;;;;8421379;28;20038;-80
2022/08/12 16:55:33;;;;;;;3.45;1.10;;;24.20;57.00;;;;;;8417938;28;20029;-80
2022/08/12 16:59:39;;;;;;;1.52;1.10;;;24.10;60.50;;;;;;8432674;28;20028;-79
2022/08/12 17:03:58;;;;;;;2.83;1.30;;;23.90;60.30;;;;;;8421875;28;20076;-79
2022/08/12 17:07:59;;;;;;;2.40;1.30;;;24.20;60.90;;;;;;8423201;28;20080;-79
2022/08/12 17:12:00;;;;;;;1.80;1.20;;;24.40;59.40;;;;;;8423374;28;20036;-79
2022/08/12 17:16:01;;;;;;;1.20;0.93;;;24.00;60.10;;;;;;8444744;28;20024;-79
2022/08/12 17:20:04;;;;;;;2.50;1.30;;;23.60;60.70;;;;;;8439130;28;20024;-80
2022/08/12 17:24:08;;;;;;;3.25;1.20;;;23.40;60.30;;;;;;8416315;28;20035;-80
2022/08/12 17:28:12;;;;;;;2.42;1.20;;;23.10;63.00;;;;;;8420011;28;20016;-79
2022/08/12 17:32:13;;;;;;;2.05;1.20;;;22.80;65.00;;;;;;8446825;28;20516;-79
2022/08/12 17:36:13;;;;;;;3.72;1.15;;;22.60;66.50;;;;;;8438954;28;20024;-80
2022/08/12 17:40:14;;;;;;;3.58;1.10;;;22.40;65.70;;;;;;8444756;28;20059;-80
2022/08/12 17:44:15;;;;;;;2.83;1.10;;;22.00;67.90;;;;;;8418584;28;20035;-81
2022/08/12 17:48:17;;;;;;;69.13;10.88;;;21.90;67.80;;;;;;8412783;28;20050;-80
2022/08/12 17:52:21;;;;;;;1.95;0.90;;;21.90;70.30;;;;;;8413424;28;20060;-81
2022/08/12 17:56:28;;;;;;;1.70;1.00;;;21.90;70.40;;;;;;8422810;28;20059;-80
2022/08/12 18:00:29;;;;;;;1.48;1.13;;;21.80;72.30;;;;;;8421112;28;20024;-80
2022/08/12 18:04:32;;;;;;;1.48;1.00;;;21.50;75.90;;;;;;8438812;28;20078;-80
2022/08/12 18:08:33;;;;;;;2.38;1.00;;;21.10;72.40;;;;;;8440884;28;20039;-80
2022/08/12 18:12:43;;;;;;;2.58;1.02;;;21.00;75.90;;;;;;8446220;28;20380;-79
2022/08/12 18:16:44;;;;;;;1.27;1.00;;;20.70;74.70;;;;;;8435339;28;20418;-81
2022/08/12 18:20:45;;;;;;;1.40;1.10;;;20.90;72.20;;;;;;8427287;28;20032;-80
2022/08/12 18:24:46;;;;;;;2.10;1.00;;;20.80;73.40;;;;;;8437934;28;20043;-80
2022/08/12 18:28:48;;;;;;;1.75;1.20;;;20.60;74.10;;;;;;8410527;28;20038;-80
2022/08/12 18:32:49;;;;;;;3.03;0.95;;;20.50;75.00;;;;;;8412898;28;20036;-80
2022/08/12 18:36:50;;;;;;;3.50;1.02;;;20.10;77.40;;;;;;8434292;28;20030;-79
2022/08/12 18:45:13;;;;;;;;;;;19.50;77.00;;;;;;8445798;28;20083;-79
2022/08/12 18:49:16;;;;;;;2.10;1.10;;;19.70;76.50;;;;;;8436665;28;19912;-79
2022/08/12 18:53:17;;;;;;;1.95;0.85;;;19.60;78.20;;;;;;8418263;28;20538;-77
2022/08/12 18:57:20;;;;;;;1.08;0.82;;;19.70;76.50;;;;;;8440696;28;20027;-78
2022/08/12 19:01:21;;;;;;;1.90;0.80;;;19.60;77.80;;;;;;8440757;28;20036;-79
2022/08/12 19:05:23;;;;;;;4.13;1.00;;;19.50;78.50;;;;;;8427915;28;20027;-79
2022/08/12 19:09:35;;;;;;;5.75;1.00;;;19.30;80.50;;;;;;8423784;28;20066;-79
2022/08/12 19:17:55;;;;;;;4.03;1.15;;;19.00;83.00;;;;;;8452412;28;20514;-79
2022/08/12 19:21:55;;;;;;;4.00;1.00;;;18.80;83.40;;;;;;8454527;28;20032;-79
2022/08/12 19:25:56;;;;;;;1.45;1.10;;;18.70;84.00;;;;;;8433568;28;20403;-79
2022/08/12 19:29:57;;;;;;;4.82;0.90;;;18.60;85.20;;;;;;8428659;28;20815;-79
2022/08/12 19:33:58;;;;;;;1.30;1.00;;;18.30;86.30;;;;;;8426175;28;20471;-79
2022/08/12 19:38:01;;;;;;;3.97;1.38;;;18.30;86.50;;;;;;8442068;28;20043;-79
2022/08/12 19:42:02;;;;;;;1.10;1.00;;;18.30;87.20;;;;;;8442927;28;20031;-79
2022/08/12 19:46:03;;;;;;;1.83;1.33;;;18.30;88.00;;;;;;8446232;28;20035;-79
2022/08/12 19:50:04;;;;;;;5.10;1.38;;;18.10;88.20;;;;;;8438254;28;20051;-79
2022/08/12 19:54:06;;;;;;;2.55;1.65;;;18.10;89.10;;;;;;8425813;28;20368;-80
2022/08/12 19:58:10;;;;;;;2.58;1.50;;;18.00;89.60;;;;;;8420651;28;20051;-79
2022/08/12 20:02:16;;;;;;;4.30;1.88;;;18.00;89.00;;;;;;8451728;22;20040;-79
2022/08/12 20:06:17;;;;;;;1.65;1.30;;;18.10;90.10;;;;;;8419044;28;20066;-79
2022/08/12 20:10:20;;;;;;;1.73;1.10;;;18.00;90.20;;;;;;8411197;28;20028;-79
2022/08/12 20:14:20;;;;;;;1.65;1.02;;;17.90;90.50;;;;;;8438316;28;20471;-79
2022/08/12 20:18:21;;;;;;;1.40;1.20;;;17.70;90.70;;;;;;8426477;28;20028;-79
2022/08/12 20:22:24;;;;;;;2.00;1.60;;;17.60;91.20;;;;;;8446348;28;20078;-80
2022/08/12 20:26:24;;;;;;;4.40;2.03;;;17.40;91.70;;;;;;8450061;28;20055;-78
2022/08/12 20:30:25;;;;;;;3.17;2.25;;;17.20;92.70;;;;;;8431281;28;20038;-78
2022/08/12 20:34:27;;;;;;;1.73;1.40;;;16.90;93.40;;;;;;8422028;28;20017;-79
2022/08/12 20:38:27;;;;;;;4.72;1.20;;;16.70;94.70;;;;;;8446082;28;20016;-79
2022/08/12 20:42:30;;;;;;;6.43;1.80;;;16.50;95.70;;;;;;8418057;28;20042;-79
2022/08/12 20:46:31;;;;;;;4.70;2.03;;;16.20;96.50;;;;;;8430451;28;20023;-79
2022/08/12 20:50:32;;;;;;;3.60;3.10;;;16.00;97.60;;;;;;8415260;28;20028;-79
2022/08/12 20:54:36;;;;;;;10.57;3.97;;;15.90;98.50;;;;;;8415343;28;20026;-79
2022/08/12 20:58:37;;;;;;;5.35;3.08;;;15.70;99.90;;;;;;8422239;28;20144;-78
2022/08/12 21:02:37;;;;;;;3.53;1.45;;;15.60;99.90;;;;;;8423687;28;20184;-79
2022/08/12 21:06:56;;;;;;;2.30;1.20;;;15.50;99.90;;;;;;8435811;28;20116;-79
2022/08/12 21:10:56;;;;;;;2.10;1.20;;;15.30;99.90;;;;;;8441323;28;20024;-80
2022/08/12 21:15:03;;;;;;;2.42;1.77;;;15.30;99.90;;;;;;8417920;28;20560;-79
2022/08/12 21:19:04;;;;;;;2.25;1.70;;;15.10;99.90;;;;;;8423613;28;20020;-79
2022/08/12 21:23:05;;;;;;;3.17;1.75;;;15.10;99.90;;;;;;8412691;28;20040;-78
2022/08/12 21:27:05;;;;;;;3.92;1.67;;;14.80;99.90;;;;;;8450546;28;20072;-78
2022/08/12 21:31:08;;;;;;;1.48;1.10;;;14.70;99.90;;;;;;8450911;28;20028;-79
2022/08/12 21:35:08;;;;;;;1.90;1.10;;;14.50;99.90;;;;;;8439979;28;20436;-79
2022/08/12 21:39:11;;;;;;;1.85;1.30;;;14.60;99.90;;;;;;8421516;28;20024;-80
2022/08/12 21:43:16;;;;;;;8.10;5.63;;;14.50;99.90;;;;;;8440111;28;20027;-80
2022/08/12 21:47:16;;;;;;;23.48;16.75;;;14.40;99.90;;;;;;8412480;28;20023;-79
2022/08/12 21:51:18;;;;;;;5.35;3.95;;;14.50;99.90;;;;;;8423448;28;20103;-78
2022/08/12 21:55:18;;;;;;;3.35;2.17;;;14.30;99.90;;;;;;8416098;28;20016;-79
2022/08/12 21:59:20;;;;;;;2.83;2.20;;;14.30;99.90;;;;;;8431196;28;20564;-79
2022/08/12 22:07:40;;;;;;;6.35;5.75;;;14.40;99.90;;;;;;8417899;28;20387;-79
2022/08/12 22:11:41;;;;;;;16.00;14.60;;;14.40;99.90;;;;;;8407870;28;20016;-78
2022/08/12 22:15:42;;;;;;;16.83;15.00;;;14.50;99.90;;;;;;8405754;28;20012;-78
2022/08/12 22:19:46;;;;;;;8.77;7.97;;;14.40;99.90;;;;;;8442667;28;20016;-79
2022/08/12 22:23:46;;;;;;;7.80;6.60;;;14.40;99.90;;;;;;8423996;28;20030;-78
2022/08/12 22:32:06;;;;;;;6.40;3.88;;;14.10;99.90;;;;;;8435648;28;20113;-79
2022/08/12 22:36:07;;;;;;;7.72;4.68;;;13.80;99.90;;;;;;8412812;28;20020;-78
2022/08/12 22:40:08;;;;;;;3.05;2.50;;;13.50;99.90;;;;;;8411822;28;20018;-78
2022/08/12 22:48:29;;;;;;;3.45;3.15;;;13.10;99.90;;;;;;8436629;28;20556;-78
2022/08/12 22:52:29;;;;;;;6.82;4.60;;;13.20;99.90;;;;;;8428850;28;20021;-78
2022/08/12 22:56:30;;;;;;;6.57;4.07;;;13.50;99.90;;;;;;8436974;28;20020;-79
2022/08/12 23:00:32;;;;;;;2.70;2.50;;;13.40;99.90;;;;;;8437573;28;20522;-78
2022/08/12 23:04:33;;;;;;;4.85;3.97;;;13.20;99.90;;;;;;8418287;28;20054;-78
2022/08/12 23:08:34;;;;;;;4.10;2.55;;;13.10;99.90;;;;;;8415569;28;20028;-79
2022/08/12 23:16:55;;;;;;;10.13;8.77;;;12.90;99.90;;;;;;8446250;28;20031;-79
2022/08/12 23:20:56;;;;;;;8.02;5.97;;;12.90;99.90;;;;;;8448701;28;20028;-80